Time;durP1;ratioP1;P1;durP2;ratioP2;P2;SDS_P1;SDS_P2;PMS_P1;PMS_P2;Temp;Humidity;BMP_temperature;BMP_pressure;BME280_temperature;BME280_humidity;BME280_pressure;Samples;Min_cycle;Max_cycle;Signal;HPM_P1;HPM_P2
2023/07/16 00:00:35;;;;;;;;;;;;;;;19.98;100.00;96353.97;5106790;28;19948;-69
2023/07/16 00:03:01;;;;;;;;;;;;;;;19.97;100.00;96349.75;5105698;28;20022;-70
2023/07/16 00:05:26;;;;;;;;;;;;;;;19.98;100.00;96347.88;5107215;28;19929;-74
2023/07/16 00:07:52;;;;;;;;;;;;;;;20.00;100.00;96335.06;5106783;28;19979;-75
2023/07/16 00:10:18;;;;;;;;;;;;;;;20.03;100.00;96326.53;5106789;28;19930;-74
2023/07/16 00:12:44;;;;;;;;;;;;;;;20.05;100.00;96322.53;5106769;28;19939;-75
2023/07/16 00:15:10;;;;;;;;;;;;;;;20.08;100.00;96327.28;5106576;28;20010;-74
2023/07/16 00:17:36;;;;;;;;;;;;;;;20.09;100.00;96336.03;5106499;28;19969;-74
2023/07/16 00:20:02;;;;;;;;;;;;;;;20.12;100.00;96329.38;5105573;28;19940;-75
2023/07/16 00:22:29;;;;;;;;;;;;;;;20.15;100.00;96342.13;5106316;28;20096;-70
2023/07/16 00:24:55;;;;;;;;;;;;;;;20.17;100.00;96348.75;5106036;28;19947;-76
2023/07/16 00:27:21;;;;;;;;;;;;;;;20.21;100.00;96349.00;5105344;28;19931;-76
2023/07/16 00:29:47;;;;;;;;;;;;;;;20.23;100.00;96352.16;5106656;28;19940;-76
2023/07/16 00:32:12;;;;;;;;;;;;;;;20.25;100.00;96377.44;5107212;28;19930;-76
2023/07/16 00:34:38;;;;;;;;;;;;;;;20.22;100.00;96371.84;5106255;28;19949;-76
2023/07/16 00:37:04;;;;;;;;;;;;;;;20.16;100.00;96354.34;5106404;28;19947;-76
2023/07/16 00:39:30;;;;;;;;;;;;;;;20.13;100.00;96357.59;5105909;28;19941;-70
2023/07/16 00:41:56;;;;;;;;;;;;;;;20.10;100.00;96358.16;5106212;28;19945;-76
2023/07/16 00:44:22;;;;;;;;;;;;;;;20.06;100.00;96357.91;5106752;28;19964;-75
2023/07/16 00:46:48;;;;;;;;;;;;;;;20.04;100.00;96349.41;5106961;28;19970;-75
2023/07/16 00:49:14;;;;;;;;;;;;;;;20.04;100.00;96354.75;5105020;28;19938;-75
2023/07/16 00:51:40;;;;;;;;;;;;;;;20.03;100.00;96353.13;5106546;28;20171;-75
2023/07/16 00:54:06;;;;;;;;;;;;;;;20.00;100.00;96375.78;5105966;28;19948;-75
2023/07/16 00:56:32;;;;;;;;;;;;;;;19.91;100.00;96366.84;5106382;28;20027;-76
2023/07/16 00:58:58;;;;;;;;;;;;;;;19.85;100.00;96384.69;5105956;28;19932;-70
2023/07/16 01:01:24;;;;;;;;;;;;;;;19.78;100.00;96394.88;5106440;28;19959;-75
2023/07/16 01:03:50;;;;;;;;;;;;;;;19.71;100.00;96413.00;5105856;28;19969;-76
2023/07/16 01:06:22;;;;;;;;;;;;;;;19.68;100.00;96411.69;5106187;28;20101;-76
2023/07/16 01:08:54;;;;;;;;;;;;;;;19.64;100.00;96405.31;5106595;28;19936;-76
2023/07/16 01:11:21;;;;;;;;;;;;;;;19.62;100.00;96406.66;5106043;28;19940;-75
2023/07/16 01:13:47;;;;;;;;;;;;;;;19.57;100.00;96407.50;5105529;28;19937;-75
2023/07/16 01:16:22;;;;;;;;;;;;;;;19.56;100.00;96416.53;5106414;28;19972;-76
2023/07/16 01:18:49;;;;;;;;;;;;;;;19.53;100.00;96413.63;5105485;28;19961;-75
2023/07/16 01:21:15;;;;;;;;;;;;;;;19.49;100.00;96413.41;5105980;28;19944;-76
2023/07/16 01:24:09;;;;;;;;;;;;;;;19.44;100.00;96414.25;5087438;28;19950;-77
2023/07/16 01:26:54;;;;;;;;;;;;;;;19.38;100.00;96419.84;5105096;28;19964;-76
2023/07/16 01:29:26;;;;;;;;;;;;;;;19.36;100.00;96420.13;5104982;28;19944;-76
2023/07/16 01:31:53;;;;;;;;;;;;;;;19.33;100.00;96430.50;5105806;28;19938;-77
2023/07/16 01:34:19;;;;;;;;;;;;;;;19.29;100.00;96426.81;5104517;28;19963;-70
2023/07/16 01:36:46;;;;;;;;;;;;;;;19.25;100.00;96434.53;5104731;28;19937;-77
2023/07/16 01:39:12;;;;;;;;;;;;;;;19.20;100.00;96414.09;5104021;28;19942;-71
2023/07/16 01:41:37;;;;;;;;;;;;;;;19.17;100.00;96409.34;5105855;28;19932;-70
2023/07/16 01:44:03;;;;;;;;;;;;;;;19.13;100.00;96412.78;5105080;28;19935;-70
2023/07/16 01:46:29;;;;;;;;;;;;;;;19.09;100.00;96417.88;5105748;28;20008;-70
2023/07/16 01:48:55;;;;;;;;;;;;;;;19.06;100.00;96413.88;5104989;28;20027;-70
2023/07/16 01:51:21;;;;;;;;;;;;;;;19.05;100.00;96420.28;5104876;28;19971;-70
2023/07/16 01:53:47;;;;;;;;;;;;;;;19.02;100.00;96420.84;5105412;28;19938;-70
2023/07/16 01:56:13;;;;;;;;;;;;;;;18.97;100.00;96410.22;5086728;28;19969;-76
2023/07/16 01:58:38;;;;;;;;;;;;;;;18.95;100.00;96398.25;5103714;28;19933;-75
2023/07/16 02:01:04;;;;;;;;;;;;;;;18.92;100.00;96404.94;5104792;28;19944;-75
2023/07/16 02:03:30;;;;;;;;;;;;;;;18.87;100.00;96410.25;5104382;28;19966;-75
2023/07/16 02:05:56;;;;;;;;;;;;;;;18.81;100.00;96417.44;5104178;28;20092;-75
2023/07/16 02:08:22;;;;;;;;;;;;;;;18.76;100.00;96408.66;5104699;28;19957;-75
2023/07/16 02:10:48;;;;;;;;;;;;;;;18.74;100.00;96421.44;5104373;28;20000;-70
2023/07/16 02:13:13;;;;;;;;;;;;;;;18.72;100.00;96434.97;5103725;28;20211;-77
2023/07/16 02:15:39;;;;;;;;;;;;;;;18.67;100.00;96435.00;5104109;28;19963;-70
2023/07/16 02:18:05;;;;;;;;;;;;;;;18.66;100.00;96428.09;5103257;28;19965;-69
2023/07/16 02:20:31;;;;;;;;;;;;;;;18.64;100.00;96411.63;5105253;28;19983;-70
2023/07/16 02:22:57;;;;;;;;;;;;;;;18.63;100.00;96412.69;5104535;28;19947;-70
2023/07/16 02:25:23;;;;;;;;;;;;;;;18.60;100.00;96427.28;5104002;28;19941;-70
2023/07/16 02:27:49;;;;;;;;;;;;;;;18.57;100.00;96419.09;5104494;28;19946;-70
2023/07/16 02:30:15;;;;;;;;;;;;;;;18.50;100.00;96435.31;5103270;28;19936;-76
2023/07/16 02:32:41;;;;;;;;;;;;;;;18.42;100.00;96444.59;5103267;28;19940;-69
2023/07/16 02:35:07;;;;;;;;;;;;;;;18.32;100.00;96436.66;5104289;28;20020;-69
2023/07/16 02:37:33;;;;;;;;;;;;;;;18.27;100.00;96447.28;5104295;28;19940;-70
2023/07/16 02:39:59;;;;;;;;;;;;;;;18.25;100.00;96455.50;5103167;28;19934;-70
2023/07/16 02:42:25;;;;;;;;;;;;;;;18.25;100.00;96447.53;5104230;28;19976;-70
2023/07/16 02:44:51;;;;;;;;;;;;;;;18.19;100.00;96445.94;5104498;28;19943;-70
2023/07/16 02:47:18;;;;;;;;;;;;;;;18.18;100.00;96452.31;5103100;28;19941;-70
2023/07/16 02:49:43;;;;;;;;;;;;;;;18.17;100.00;96456.03;5103079;28;20127;-75
2023/07/16 02:52:09;;;;;;;;;;;;;;;18.20;100.00;96467.97;5104103;28;19936;-70
2023/07/16 02:54:36;;;;;;;;;;;;;;;18.20;100.00;96470.63;5104592;28;19959;-70
2023/07/16 02:57:02;;;;;;;;;;;;;;;18.21;100.00;96465.06;5104330;28;19955;-70
2023/07/16 02:59:28;;;;;;;;;;;;;;;18.18;100.00;96448.84;5104593;28;19980;-70
2023/07/16 03:01:54;;;;;;;;;;;;;;;18.18;100.00;96454.94;5104853;28;19948;-71
2023/07/16 03:04:19;;;;;;;;;;;;;;;18.21;100.00;96470.38;5104604;28;19949;-69
2023/07/16 03:06:45;;;;;;;;;;;;;;;18.20;100.00;96474.06;5104242;28;19947;-70
2023/07/16 03:09:11;;;;;;;;;;;;;;;18.19;100.00;96459.22;5104033;28;19932;-74
2023/07/16 03:11:37;;;;;;;;;;;;;;;18.16;100.00;96466.91;5104232;28;19932;-75
2023/07/16 03:14:03;;;;;;;;;;;;;;;18.14;100.00;96458.41;5104481;28;19942;-75
2023/07/16 03:16:28;;;;;;;;;;;;;;;18.14;100.00;96461.88;5103878;28;20270;-76
2023/07/16 03:18:54;;;;;;;;;;;;;;;18.13;100.00;96478.06;5103731;28;20029;-74
2023/07/16 03:21:20;;;;;;;;;;;;;;;18.11;100.00;96477.53;5103888;28;20145;-74
2023/07/16 03:23:46;;;;;;;;;;;;;;;18.11;100.00;96480.97;5104418;28;19934;-74
2023/07/16 03:26:12;;;;;;;;;;;;;;;18.08;100.00;96486.81;5107690;28;19942;-69
2023/07/16 03:28:38;;;;;;;;;;;;;;;18.07;100.00;96493.19;5107414;28;20133;-70
2023/07/16 03:31:03;;;;;;;;;;;;;;;18.05;100.00;96488.13;5107644;28;20123;-69
2023/07/16 03:33:29;;;;;;;;;;;;;;;18.05;100.00;96519.97;5107812;28;19944;-71
2023/07/16 03:35:55;;;;;;;;;;;;;;;18.04;100.00;96509.66;5106870;28;19967;-70
2023/07/16 03:38:21;;;;;;;;;;;;;;;18.02;100.00;96515.22;5107579;28;19944;-70
2023/07/16 03:40:48;;;;;;;;;;;;;;;18.02;100.00;96520.50;5107402;28;19947;-69
2023/07/16 03:43:14;;;;;;;;;;;;;;;18.01;100.00;96524.22;5108216;28;19939;-75
2023/07/16 03:45:40;;;;;;;;;;;;;;;18.02;100.00;96531.13;5107571;28;19957;-70
2023/07/16 03:48:06;;;;;;;;;;;;;;;18.04;100.00;96562.72;5108167;28;19933;-74
2023/07/16 03:50:32;;;;;;;;;;;;;;;18.03;100.00;96551.28;5106050;28;19940;-75
2023/07/16 03:52:58;;;;;;;;;;;;;;;18.00;100.00;96545.72;5108114;28;20008;-75
2023/07/16 03:55:24;;;;;;;;;;;;;;;17.99;100.00;96541.47;5107668;28;19958;-75
2023/07/16 03:57:50;;;;;;;;;;;;;;;17.97;100.00;96528.44;5107050;28;20262;-75
2023/07/16 04:00:16;;;;;;;;;;;;;;;17.91;100.00;96521.56;5107186;28;20034;-74
2023/07/16 04:02:42;;;;;;;;;;;;;;;17.88;100.00;96515.97;5106965;28;19985;-75
2023/07/16 04:05:08;;;;;;;;;;;;;;;17.85;100.00;96509.34;5107136;28;19932;-79
2023/07/16 04:07:34;;;;;;;;;;;;;;;17.85;100.00;96498.75;5105870;28;20057;-77
2023/07/16 04:09:59;;;;;;;;;;;;;;;17.85;100.00;96504.84;5107564;28;19937;-78
2023/07/16 04:12:25;;;;;;;;;;;;;;;17.87;100.00;96507.22;5106923;28;19935;-77
2023/07/16 04:14:56;;;;;;;;;;;;;;;17.90;100.00;96519.16;5105571;28;20276;-75
2023/07/16 04:17:22;;;;;;;;;;;;;;;17.85;100.00;96533.22;5107483;28;19932;-76
2023/07/16 04:19:48;;;;;;;;;;;;;;;17.85;100.00;96565.06;5107327;28;19938;-69
2023/07/16 04:22:14;;;;;;;;;;;;;;;17.81;100.00;96580.66;5106725;28;19935;-73
2023/07/16 04:24:40;;;;;;;;;;;;;;;17.81;100.00;96571.91;5106574;28;19939;-74
2023/07/16 04:27:06;;;;;;;;;;;;;;;17.81;100.00;96572.72;5106655;28;20247;-74
2023/07/16 04:29:31;;;;;;;;;;;;;;;17.83;100.00;96578.59;5106928;28;20238;-75
2023/07/16 04:31:57;;;;;;;;;;;;;;;17.85;100.00;96596.91;5106551;28;19996;-75
2023/07/16 04:34:23;;;;;;;;;;;;;;;17.87;100.00;96593.97;5106408;28;19931;-76
2023/07/16 04:36:49;;;;;;;;;;;;;;;17.85;100.00;96589.72;5105745;28;19939;-75
2023/07/16 04:39:15;;;;;;;;;;;;;;;17.79;100.00;96605.88;5106335;28;19936;-69
2023/07/16 04:41:40;;;;;;;;;;;;;;;17.70;100.00;96600.28;5106859;28;19934;-77
2023/07/16 04:44:06;;;;;;;;;;;;;;;17.60;100.00;96595.72;5106841;28;19935;-77
2023/07/16 04:46:32;;;;;;;;;;;;;;;17.49;100.00;96604.69;5106232;28;19941;-78
2023/07/16 04:48:58;;;;;;;;;;;;;;;17.44;100.00;96600.13;5106254;28;19943;-77
2023/07/16 04:51:24;;;;;;;;;;;;;;;17.42;100.00;96601.44;5106927;28;20113;-78
2023/07/16 04:53:50;;;;;;;;;;;;;;;17.43;100.00;96603.84;5106593;28;19973;-77
2023/07/16 04:56:16;;;;;;;;;;;;;;;17.48;100.00;96607.59;5105861;28;19963;-69
2023/07/16 04:58:42;;;;;;;;;;;;;;;17.50;100.00;96616.09;5106019;28;19940;-77
2023/07/16 05:01:08;;;;;;;;;;;;;;;17.51;100.00;96597.25;5106476;28;19940;-76
2023/07/16 05:03:34;;;;;;;;;;;;;;;17.49;100.00;96587.97;5105805;28;19931;-75
2023/07/16 05:06:00;;;;;;;;;;;;;;;17.50;100.00;96611.56;5106433;28;20119;-75
2023/07/16 05:08:26;;;;;;;;;;;;;;;17.51;100.00;96622.97;5105825;28;19934;-75
2023/07/16 05:10:52;;;;;;;;;;;;;;;17.48;100.00;96607.59;5106578;28;19938;-74
2023/07/16 05:13:18;;;;;;;;;;;;;;;17.45;100.00;96612.34;5106238;28;19929;-75
2023/07/16 05:15:44;;;;;;;;;;;;;;;17.42;100.00;96612.84;5106352;28;19949;-69
2023/07/16 05:18:10;;;;;;;;;;;;;;;17.34;100.00;96600.06;5105327;28;19965;-75
2023/07/16 05:20:36;;;;;;;;;;;;;;;17.28;100.00;96618.88;5105516;28;19946;-76
2023/07/16 05:23:02;;;;;;;;;;;;;;;17.25;100.00;96607.72;5105496;28;20154;-76
2023/07/16 05:25:28;;;;;;;;;;;;;;;17.28;100.00;96614.34;5106038;28;19995;-75
2023/07/16 05:27:54;;;;;;;;;;;;;;;17.24;100.00;96624.69;5105927;28;19962;-76
2023/07/16 05:30:20;;;;;;;;;;;;;;;17.26;100.00;96613.84;5105376;28;19944;-76
2023/07/16 05:32:46;;;;;;;;;;;;;;;17.34;100.00;96618.63;5105326;28;19936;-76
2023/07/16 05:35:12;;;;;;;;;;;;;;;17.42;100.00;96633.25;5105226;28;19959;-69
2023/07/16 05:37:38;;;;;;;;;;;;;;;17.40;100.00;96630.06;5105286;28;19940;-69
2023/07/16 05:40:04;;;;;;;;;;;;;;;17.34;100.00;96639.03;5105728;28;19977;-68
2023/07/16 05:42:30;;;;;;;;;;;;;;;17.31;100.00;96632.41;5103958;28;20226;-69
2023/07/16 05:44:55;;;;;;;;;;;;;;;17.32;100.00;96626.03;5105131;28;19932;-69
2023/07/16 05:47:21;;;;;;;;;;;;;;;17.37;100.00;96617.34;5104778;28;19985;-69
2023/07/16 05:49:47;;;;;;;;;;;;;;;17.35;100.00;96616.78;5105015;28;19935;-69
2023/07/16 05:52:13;;;;;;;;;;;;;;;17.31;100.00;96613.84;5105828;28;19933;-75
2023/07/16 05:54:39;;;;;;;;;;;;;;;17.32;100.00;96601.41;5104903;28;20183;-75
2023/07/16 05:57:05;;;;;;;;;;;;;;;17.29;100.00;96605.34;5104469;28;19956;-69
2023/07/16 05:59:36;;;;;;;;;;;;;;;17.25;100.00;96598.97;5103799;28;19955;-70
2023/07/16 06:02:01;;;;;;;;;;;;;;;17.23;100.00;96638.97;5105661;28;20002;-69
2023/07/16 06:04:27;;;;;;;;;;;;;;;17.20;100.00;96651.97;5105096;28;19941;-69
2023/07/16 06:06:53;;;;;;;;;;;;;;;17.17;100.00;96640.00;5104792;28;19934;-69
2023/07/16 06:09:19;;;;;;;;;;;;;;;17.14;100.00;96629.91;5105302;28;19936;-69
2023/07/16 06:11:48;;;;;;;;;;;;;;;17.13;100.00;96617.72;5105477;28;19971;-69
2023/07/16 06:14:14;;;;;;;;;;;;;;;17.10;100.00;96631.47;5104647;28;20130;-69
2023/07/16 06:16:40;;;;;;;;;;;;;;;17.09;100.00;96624.56;5104549;28;19950;-69
2023/07/16 06:19:06;;;;;;;;;;;;;;;17.13;100.00;96638.91;5104488;28;19964;-69
2023/07/16 06:21:32;;;;;;;;;;;;;;;17.17;100.00;96639.22;5105071;28;19936;-69
2023/07/16 06:23:58;;;;;;;;;;;;;;;17.18;100.00;96636.31;5104148;28;19939;-69
2023/07/16 06:26:24;;;;;;;;;;;;;;;17.21;100.00;96650.91;5104946;28;19957;-68
2023/07/16 06:28:50;;;;;;;;;;;;;;;17.21;100.00;96633.13;5104450;28;19972;-75
2023/07/16 06:31:16;;;;;;;;;;;;;;;17.25;100.00;96642.16;5104475;28;20249;-74
2023/07/16 06:33:42;;;;;;;;;;;;;;;17.30;100.00;96622.84;5104419;28;19936;-73
2023/07/16 06:36:08;;;;;;;;;;;;;;;17.37;100.00;96625.28;5104305;28;20000;-73
2023/07/16 06:38:34;;;;;;;;;;;;;;;17.45;100.00;96630.91;5104187;28;19934;-73
2023/07/16 06:41:00;;;;;;;;;;;;;;;17.55;100.00;96643.41;5104354;28;19939;-73
2023/07/16 06:43:25;;;;;;;;;;;;;;;17.67;100.00;96639.75;5104422;28;19969;-73
2023/07/16 06:45:51;;;;;;;;;;;;;;;17.70;100.00;96640.06;5104167;28;19971;-73
2023/07/16 06:48:17;;;;;;;;;;;;;;;17.73;100.00;96647.47;5104550;28;19943;-69
2023/07/16 06:50:43;;;;;;;;;;;;;;;17.73;100.00;96650.13;5103965;28;19932;-76
2023/07/16 06:53:09;;;;;;;;;;;;;;;17.87;100.00;96653.16;5103547;28;19945;-76
2023/07/16 06:55:36;;;;;;;;;;;;;;;18.30;100.00;96645.84;5104568;28;19955;-77
2023/07/16 06:58:01;;;;;;;;;;;;;;;18.74;96.40;96623.31;5104660;28;20224;-76
2023/07/16 07:00:27;;;;;;;;;;;;;;;19.12;95.76;96621.22;5107636;28;19978;-78
2023/07/16 07:02:54;;;;;;;;;;;;;;;19.39;92.73;96610.25;5106890;28;19938;-79
2023/07/16 07:05:19;;;;;;;;;;;;;;;19.58;90.27;96600.63;5108353;28;19954;-71
2023/07/16 07:07:45;;;;;;;;;;;;;;;19.74;89.44;96588.09;5108634;28;20269;-72
2023/07/16 07:10:12;;;;;;;;;;;;;;;19.91;88.36;96595.72;5107952;28;20035;-75
2023/07/16 07:12:38;;;;;;;;;;;;;;;19.89;84.79;96587.22;5108434;28;19938;-74
2023/07/16 07:15:08;;;;;;;;;;;;;;;19.66;86.38;96605.38;5107847;28;20112;-75
2023/07/16 07:17:34;;;;;;;;;;;;;;;19.48;89.40;96619.25;5107988;28;19963;-74
2023/07/16 07:20:00;;;;;;;;;;;;;;;19.33;88.03;96621.97;5108239;28;19951;-75
2023/07/16 07:22:26;;;;;;;;;;;;;;;19.12;86.85;96626.53;5107802;28;19935;-75
2023/07/16 07:24:51;;;;;;;;;;;;;;;19.00;87.22;96632.09;5106682;28;19940;-72
2023/07/16 07:27:17;;;;;;;;;;;;;;;18.95;89.98;96645.41;5106366;28;19934;-76
2023/07/16 07:29:43;;;;;;;;;;;;;;;18.93;87.64;96635.03;5089448;28;19945;-85
2023/07/16 07:32:09;;;;;;;;;;;;;;;18.92;87.47;96635.31;5089737;28;19941;-84
2023/07/16 07:34:35;;;;;;;;;;;;;;;18.84;86.26;96629.47;5107090;28;19933;-82
2023/07/16 07:37:01;;;;;;;;;;;;;;;18.78;89.28;96646.47;5106240;28;19955;-79
2023/07/16 07:39:27;;;;;;;;;;;;;;;18.86;88.07;96642.50;5089452;28;19943;-81
2023/07/16 07:41:52;;;;;;;;;;;;;;;18.89;87.85;96638.50;5106089;28;20039;-75
2023/07/16 07:44:18;;;;;;;;;;;;;;;19.03;87.44;96628.94;5107392;28;19937;-71
2023/07/16 07:46:44;;;;;;;;;;;;;;;19.16;85.99;96617.75;5106868;28;20217;-72
2023/07/16 07:49:10;;;;;;;;;;;;;;;19.18;88.73;96652.84;5089328;28;20215;-71
2023/07/16 07:51:36;;;;;;;;;;;;;;;19.05;85.02;96640.09;5106901;28;19949;-71
2023/07/16 07:54:02;;;;;;;;;;;;;;;18.94;83.66;96631.34;5108065;28;19937;-72
2023/07/16 07:56:27;;;;;;;;;;;;;;;18.91;84.99;96633.72;5106776;28;19980;-72
2023/07/16 07:58:53;;;;;;;;;;;;;;;19.12;85.33;96639.81;5106082;28;20288;-71
2023/07/16 08:01:19;;;;;;;;;;;;;;;19.37;86.73;96646.97;5106843;28;19956;-72
2023/07/16 08:03:45;;;;;;;;;;;;;;;19.48;84.42;96643.19;5106182;28;19936;-71
2023/07/16 08:06:12;;;;;;;;;;;;;;;19.73;87.96;96650.34;5106017;28;19940;-71
2023/07/16 08:08:38;;;;;;;;;;;;;;;19.83;81.37;96610.38;5106786;28;20236;-72
2023/07/16 08:11:04;;;;;;;;;;;;;;;19.83;81.84;96621.03;5087762;28;19938;-71
2023/07/16 08:13:30;;;;;;;;;;;;;;;19.78;83.27;96626.41;5106461;28;19941;-71
2023/07/16 08:15:56;;;;;;;;;;;;;;;19.68;78.49;96584.63;5106789;28;20009;-71
2023/07/16 08:18:21;;;;;;;;;;;;;;;19.52;76.99;96558.34;5106675;28;20019;-71
2023/07/16 08:20:47;;;;;;;;;;;;;;;19.33;76.90;96560.81;5106618;28;20119;-71
2023/07/16 08:23:13;;;;;;;;;;;;;;;19.31;77.57;96563.72;5089341;28;20206;-72
2023/07/16 08:25:39;;;;;;;;;;;;;;;19.42;80.53;96599.88;5106458;28;20007;-72
2023/07/16 08:28:07;;;;;;;;;;;;;;;19.58;80.73;96605.94;5107003;28;19942;-72
2023/07/16 08:30:33;;;;;;;;;;;;;;;19.57;74.72;96553.81;5106510;28;19943;-74
2023/07/16 08:32:59;;;;;;;;;;;;;;;19.55;77.51;96584.41;5105767;28;19935;-74
2023/07/16 08:35:25;;;;;;;;;;;;;;;19.50;78.71;96603.84;5106718;28;20143;-74
2023/07/16 08:37:51;;;;;;;;;;;;;;;19.45;77.94;96591.34;5106983;28;20215;-74
2023/07/16 08:40:17;;;;;;;;;;;;;;;19.39;77.48;96584.44;5106268;28;20265;-83
2023/07/16 08:42:44;;;;;;;;;;;;;;;19.40;77.10;96580.75;5106101;28;19936;-72
2023/07/16 08:45:10;;;;;;;;;;;;;;;19.67;78.44;96609.66;5088103;28;20250;-72
2023/07/16 08:47:36;;;;;;;;;;;;;;;19.92;76.01;96584.00;5104938;28;19962;-70
2023/07/16 08:50:02;;;;;;;;;;;;;;;20.11;74.57;96575.38;5105965;28;19933;-70
2023/07/16 08:52:29;;;;;;;;;;;;;;;20.23;72.31;96557.19;5106758;28;20201;-71
2023/07/16 08:54:55;;;;;;;;;;;;;;;20.47;74.63;96590.06;5105573;28;20106;-71
2023/07/16 08:57:21;;;;;;;;;;;;;;;20.64;74.00;96572.91;5104677;28;19970;-82
2023/07/16 08:59:47;;;;;;;;;;;;;;;20.76;70.83;96546.69;5088674;28;19939;-76
2023/07/16 09:02:14;;;;;;;;;;;;;;;20.84;69.46;96548.75;5087814;28;19946;-79
2023/07/16 09:04:40;;;;;;;;;;;;;;;20.97;70.90;96557.16;5106320;28;20190;-79
2023/07/16 09:07:05;;;;;;;;;;;;;;;21.13;69.13;96561.25;5104780;28;19945;-78
2023/07/16 09:09:31;;;;;;;;;;;;;;;21.17;68.05;96538.28;5106296;28;19977;-78
2023/07/16 09:11:57;;;;;;;;;;;;;;;21.21;71.15;96560.66;5088781;28;20203;-79
2023/07/16 09:14:23;;;;;;;;;;;;;;;21.40;69.30;96546.56;5105672;28;20223;-69
2023/07/16 09:16:49;;;;;;;;;;;;;;;21.52;67.22;96535.50;5104268;28;19968;-70
2023/07/16 09:19:18;;;;;;;;;;;;;;;21.68;67.10;96536.91;5105574;28;19943;-71
2023/07/16 09:21:47;;;;;;;;;;;;;;;21.78;67.53;96530.66;5105521;28;19951;-70
2023/07/16 09:24:15;;;;;;;;;;;;;;;21.58;66.28;96529.81;5104743;28;21079;-70
2023/07/16 09:26:48;;;;;;;;;;;;;;;21.57;62.40;96504.22;5104331;28;19950;-70
2023/07/16 09:29:14;;;;;;;;;;;;;;;21.73;67.39;96542.16;5104999;28;20244;-70
2023/07/16 09:31:54;;;;;;;;;;;;;;;21.81;65.30;96530.84;5105849;28;19938;-71
2023/07/16 09:34:20;;;;;;;;;;;;;;;21.79;64.63;96526.88;5105575;28;19943;-71
2023/07/16 09:36:49;;;;;;;;;;;;;;;21.83;66.92;96547.38;5105141;28;19951;-73
2023/07/16 09:39:16;;;;;;;;;;;;;;;22.01;66.28;96531.66;5105615;28;19934;-72
2023/07/16 09:41:42;;;;;;;;;;;;;;;21.98;64.42;96534.91;5105216;28;19937;-72
2023/07/16 09:44:09;;;;;;;;;;;;;;;21.96;64.32;96521.03;5105155;28;19947;-72
2023/07/16 09:46:35;;;;;;;;;;;;;;;22.02;64.17;96536.69;5105004;28;19931;-72
2023/07/16 09:49:01;;;;;;;;;;;;;;;21.93;67.61;96573.16;5104965;28;20244;-73
2023/07/16 09:51:27;;;;;;;;;;;;;;;21.77;67.57;96567.22;5105839;28;19931;-71
2023/07/16 09:53:54;;;;;;;;;;;;;;;21.69;68.76;96587.34;5103885;28;19937;-72
2023/07/16 09:56:20;;;;;;;;;;;;;;;21.86;66.72;96559.38;5103685;28;19963;-71
2023/07/16 09:58:46;;;;;;;;;;;;;;;22.14;67.03;96560.31;5104797;28;20264;-71
2023/07/16 10:01:13;;;;;;;;;;;;;;;22.31;65.25;96551.03;5104571;28;19942;-70
2023/07/16 10:03:48;;;;;;;;;;;;;;;22.22;61.63;96530.28;5105357;28;19933;-70
2023/07/16 10:06:14;;;;;;;;;;;;;;;22.12;63.54;96551.00;5105361;28;19932;-70
2023/07/16 10:08:40;;;;;;;;;;;;;;;22.09;67.12;96584.44;5104992;28;19986;-71
2023/07/16 10:11:15;;;;;;;;;;;;;;;22.09;66.00;96568.41;5105000;28;19994;-75
2023/07/16 10:13:41;;;;;;;;;;;;;;;22.41;70.55;96604.31;5105566;28;20001;-71
2023/07/16 10:16:08;;;;;;;;;;;;;;;22.72;67.44;96574.41;5104244;28;19961;-70
2023/07/16 10:18:35;;;;;;;;;;;;;;;22.80;66.91;96573.75;5103452;28;20156;-71
2023/07/16 10:21:01;;;;;;;;;;;;;;;22.83;63.44;96549.13;5105121;28;19959;-70
2023/07/16 10:23:36;;;;;;;;;;;;;;;22.90;61.50;96541.50;5105404;28;19932;-71
2023/07/16 10:26:05;;;;;;;;;;;;;;;22.94;59.91;96571.13;5105057;28;19935;-70
2023/07/16 10:28:32;;;;;;;;;;;;;;;23.13;63.33;96585.25;5104866;28;19930;-73
2023/07/16 10:30:58;;;;;;;;;;;;;;;23.26;56.97;96564.94;5103407;28;19933;-72
2023/07/16 10:33:24;;;;;;;;;;;;;;;23.15;57.25;96564.34;5104684;28;19930;-73
2023/07/16 10:35:50;;;;;;;;;;;;;;;23.03;59.39;96570.16;5104282;28;19978;-73
2023/07/16 10:38:15;;;;;;;;;;;;;;;23.15;63.12;96590.31;5086905;28;19938;-73
2023/07/16 10:40:42;;;;;;;;;;;;;;;23.25;62.27;96582.88;5104260;28;19959;-73
2023/07/16 10:43:08;;;;;;;;;;;;;;;23.49;63.00;96597.94;5104852;28;19932;-73
2023/07/16 10:45:34;;;;;;;;;;;;;;;23.71;60.34;96578.53;5103156;28;20245;-75
2023/07/16 10:48:00;;;;;;;;;;;;;;;23.66;60.62;96576.72;5087142;28;19941;-72
2023/07/16 10:50:26;;;;;;;;;;;;;;;23.60;59.39;96569.09;5103650;28;20231;-71
2023/07/16 10:52:56;;;;;;;;;;;;;;;23.68;60.37;96579.91;5104705;28;19968;-71
2023/07/16 10:55:22;;;;;;;;;;;;;;;23.68;60.92;96590.59;5103716;28;19939;-72
2023/07/16 10:57:49;;;;;;;;;;;;;;;23.65;55.80;96564.44;5104006;28;19952;-72
2023/07/16 11:00:16;;;;;;;;;;;;;;;23.71;60.43;96587.34;5104361;28;19941;-71
2023/07/16 11:02:43;;;;;;;;;;;;;;;23.67;60.25;96583.69;5086107;28;19941;-72
2023/07/16 11:05:13;;;;;;;;;;;;;;;23.44;57.69;96569.41;5086131;28;19940;-76
2023/07/16 11:07:42;;;;;;;;;;;;;;;23.43;60.48;96583.09;5104529;28;20094;-74
2023/07/16 11:10:08;;;;;;;;;;;;;;;23.62;60.86;96586.47;5104851;28;19939;-73
2023/07/16 11:12:34;;;;;;;;;;;;;;;23.74;56.03;96561.84;5104003;28;19928;-74
2023/07/16 11:15:00;;;;;;;;;;;;;;;23.76;57.66;96565.06;5103607;28;19948;-74
2023/07/16 11:17:26;;;;;;;;;;;;;;;23.82;58.10;96576.47;5103712;28;19966;-73
2023/07/16 11:19:52;;;;;;;;;;;;;;;23.76;57.30;96573.09;5104431;28;20046;-73
2023/07/16 11:22:18;;;;;;;;;;;;;;;23.64;58.08;96573.56;5103907;28;19943;-74
2023/07/16 11:24:46;;;;;;;;;;;;;;;23.59;59.21;96587.06;5104709;28;20009;-74
2023/07/16 11:27:13;;;;;;;;;;;;;;;23.65;60.29;96579.72;5085882;28;19939;-75
2023/07/16 11:29:41;;;;;;;;;;;;;;;23.53;56.14;96574.84;5103421;28;19937;-75
2023/07/16 11:32:07;;;;;;;;;;;;;;;23.49;58.02;96582.69;5103842;28;19938;-76
2023/07/16 11:34:33;;;;;;;;;;;;;;;23.44;58.41;96582.00;5104329;28;19945;-75
2023/07/16 11:37:09;;;;;;;;;;;;;;;23.27;57.66;96580.69;5103680;28;19996;-75
2023/07/16 11:39:35;;;;;;;;;;;;;;;23.21;58.87;96583.78;5103128;28;19934;-76
2023/07/16 11:42:02;;;;;;;;;;;;;;;23.29;60.26;96591.13;5104191;28;20216;-78
2023/07/16 11:44:34;;;;;;;;;;;;;;;23.39;57.78;96574.06;5103805;28;19943;-77
2023/07/16 11:47:00;;;;;;;;;;;;;;;23.34;57.15;96571.50;5107386;28;19945;-78
2023/07/16 11:49:26;;;;;;;;;;;;;;;23.23;57.10;96555.63;5090060;28;19946;-77
2023/07/16 11:51:52;;;;;;;;;;;;;;;23.26;59.50;96571.06;5107566;28;19944;-77
2023/07/16 11:54:18;;;;;;;;;;;;;;;23.35;59.38;96557.81;5107826;28;19939;-77
2023/07/16 11:56:44;;;;;;;;;;;;;;;23.60;60.24;96555.72;5105905;28;19960;-77
2023/07/16 11:59:10;;;;;;;;;;;;;;;23.91;57.38;96535.25;5089990;28;19983;-77
2023/07/16 12:01:35;;;;;;;;;;;;;;;24.06;57.73;96544.06;5106002;28;19936;-71
2023/07/16 12:04:01;;;;;;;;;;;;;;;24.07;58.24;96548.34;5106057;28;19941;-72
2023/07/16 12:06:27;;;;;;;;;;;;;;;24.05;56.19;96545.16;5088967;28;20019;-72
2023/07/16 12:08:55;;;;;;;;;;;;;;;24.23;55.27;96538.84;5106607;28;19942;-72
2023/07/16 12:11:21;;;;;;;;;;;;;;;24.59;58.30;96547.94;5105885;28;19938;-72
2023/07/16 12:13:47;;;;;;;;;;;;;;;24.84;57.04;96538.47;5089707;28;19934;-72
2023/07/16 12:16:13;;;;;;;;;;;;;;;24.96;53.61;96533.31;5106799;28;19937;-72
2023/07/16 12:18:39;;;;;;;;;;;;;;;25.26;54.49;96522.91;5088861;28;19970;-73
2023/07/16 12:21:06;;;;;;;;;;;;;;;25.43;54.03;96522.16;5106794;28;19950;-77
2023/07/16 12:23:31;;;;;;;;;;;;;;;25.45;52.35;96511.91;5089624;28;20011;-77
2023/07/16 12:25:57;;;;;;;;;;;;;;;25.55;53.19;96529.63;5088682;28;19945;-77
2023/07/16 12:28:23;;;;;;;;;;;;;;;25.59;53.33;96526.00;5106298;28;19946;-77
2023/07/16 12:30:49;;;;;;;;;;;;;;;25.69;54.09;96531.06;5107092;28;19933;-77
2023/07/16 12:33:15;;;;;;;;;;;;;;;25.93;52.36;96527.16;5105494;28;19939;-77
2023/07/16 12:35:41;;;;;;;;;;;;;;;26.16;52.63;96530.50;5106066;28;20006;-78